sensor_id;sensor_type;location;lat;lon;timestamp;temperature;humidity
28677;DHT22;15858;48.338;11.078;2023-07-13T00:02:17;18.70;99.90
28677;DHT22;15858;48.338;11.078;2023-07-13T00:04:44;18.70;99.90
28677;DHT22;15858;48.338;11.078;2023-07-13T00:07:11;18.70;99.90
28677;DHT22;15858;48.338;11.078;2023-07-13T00:09:38;18.70;99.90
28677;DHT22;15858;48.338;11.078;2023-07-13T00:12:19;18.70;99.90
28677;DHT22;15858;48.338;11.078;2023-07-13T00:14:47;18.70;99.90
28677;DHT22;15858;48.338;11.078;2023-07-13T00:17:14;18.70;99.90
28677;DHT22;15858;48.338;11.078;2023-07-13T00:19:41;18.70;99.90
28677;DHT22;15858;48.338;11.078;2023-07-13T00:22:09;18.70;99.90
28677;DHT22;15858;48.338;11.078;2023-07-13T00:24:36;18.70;99.90
28677;DHT22;15858;48.338;11.078;2023-07-13T00:27:03;18.70;99.90
28677;DHT22;15858;48.338;11.078;2023-07-13T00:29:30;18.70;99.90
28677;DHT22;15858;48.338;11.078;2023-07-13T00:31:56;18.70;99.90
28677;DHT22;15858;48.338;11.078;2023-07-13T00:34:23;18.70;99.90
28677;DHT22;15858;48.338;11.078;2023-07-13T00:36:50;18.70;99.90
28677;DHT22;15858;48.338;11.078;2023-07-13T00:39:17;18.70;99.90
28677;DHT22;15858;48.338;11.078;2023-07-13T00:41:44;18.70;99.90
28677;DHT22;15858;48.338;11.078;2023-07-13T00:44:14;18.70;99.90
28677;DHT22;15858;48.338;11.078;2023-07-13T00:46:41;18.70;99.90
28677;DHT22;15858;48.338;11.078;2023-07-13T00:49:11;18.70;99.90
28677;DHT22;15858;48.338;11.078;2023-07-13T00:54:13;18.70;99.90
28677;DHT22;15858;48.338;11.078;2023-07-13T00:56:43;18.70;99.90
28677;DHT22;15858;48.338;11.078;2023-07-13T00:59:13;18.80;99.90
28677;DHT22;15858;48.338;11.078;2023-07-13T01:01:41;18.80;99.90
28677;DHT22;15858;48.338;11.078;2023-07-13T01:04:09;18.80;99.90
28677;DHT22;15858;48.338;11.078;2023-07-13T01:06:37;18.80;99.90
28677;DHT22;15858;48.338;11.078;2023-07-13T01:09:05;18.80;99.90
28677;DHT22;15858;48.338;11.078;2023-07-13T01:11:33;18.80;99.90
28677;DHT22;15858;48.338;11.078;2023-07-13T01:14:02;18.80;99.90
28677;DHT22;15858;48.338;11.078;2023-07-13T01:16:31;18.80;99.90
28677;DHT22;15858;48.338;11.078;2023-07-13T01:18:59;18.90;99.90
28677;DHT22;15858;48.338;11.078;2023-07-13T01:21:27;18.90;99.90
28677;DHT22;15858;48.338;11.078;2023-07-13T01:23:54;18.80;99.90
28677;DHT22;15858;48.338;11.078;2023-07-13T01:26:21;18.80;99.90
28677;DHT22;15858;48.338;11.078;2023-07-13T01:28:48;18.80;99.90
28677;DHT22;15858;48.338;11.078;2023-07-13T01:31:15;18.80;99.90
28677;DHT22;15858;48.338;11.078;2023-07-13T01:33:42;18.80;99.90
28677;DHT22;15858;48.338;11.078;2023-07-13T01:36:11;18.80;99.90
28677;DHT22;15858;48.338;11.078;2023-07-13T01:38:38;18.80;99.90
28677;DHT22;15858;48.338;11.078;2023-07-13T01:41:04;18.80;99.90
28677;DHT22;15858;48.338;11.078;2023-07-13T01:43:31;18.80;99.90
28677;DHT22;15858;48.338;11.078;2023-07-13T01:45:58;18.80;99.90
28677;DHT22;15858;48.338;11.078;2023-07-13T01:48:45;18.80;99.90
28677;DHT22;15858;48.338;11.078;2023-07-13T01:51:11;18.70;99.90
28677;DHT22;15858;48.338;11.078;2023-07-13T01:53:38;18.70;99.90
28677;DHT22;15858;48.338;11.078;2023-07-13T01:56:05;18.70;99.90
28677;DHT22;15858;48.338;11.078;2023-07-13T01:58:31;18.70;99.90
28677;DHT22;15858;48.338;11.078;2023-07-13T02:00:58;18.70;99.90
28677;DHT22;15858;48.338;11.078;2023-07-13T02:03:25;18.70;99.90
28677;DHT22;15858;48.338;11.078;2023-07-13T02:05:52;18.60;99.90
28677;DHT22;15858;48.338;11.078;2023-07-13T02:08:18;18.60;99.90
28677;DHT22;15858;48.338;11.078;2023-07-13T02:10:48;18.50;99.90
28677;DHT22;15858;48.338;11.078;2023-07-13T02:13:15;18.50;99.90
28677;DHT22;15858;48.338;11.078;2023-07-13T02:15:41;18.60;99.90
28677;DHT22;15858;48.338;11.078;2023-07-13T02:18:08;18.50;99.90
28677;DHT22;15858;48.338;11.078;2023-07-13T02:20:35;18.60;99.90
28677;DHT22;15858;48.338;11.078;2023-07-13T02:23:04;18.60;99.90
28677;DHT22;15858;48.338;11.078;2023-07-13T02:25:35;18.60;99.90
28677;DHT22;15858;48.338;11.078;2023-07-13T02:28:02;18.50;99.90
28677;DHT22;15858;48.338;11.078;2023-07-13T02:30:29;18.50;99.90
28677;DHT22;15858;48.338;11.078;2023-07-13T02:32:57;18.50;99.90
28677;DHT22;15858;48.338;11.078;2023-07-13T02:35:24;18.40;99.90
28677;DHT22;15858;48.338;11.078;2023-07-13T02:37:50;18.40;99.90
28677;DHT22;15858;48.338;11.078;2023-07-13T02:40:17;18.40;99.90
28677;DHT22;15858;48.338;11.078;2023-07-13T02:42:44;18.40;99.90
28677;DHT22;15858;48.338;11.078;2023-07-13T02:45:11;18.40;99.90
28677;DHT22;15858;48.338;11.078;2023-07-13T02:47:39;18.40;99.90
28677;DHT22;15858;48.338;11.078;2023-07-13T02:50:06;18.40;99.90
28677;DHT22;15858;48.338;11.078;2023-07-13T02:52:33;18.30;99.90
28677;DHT22;15858;48.338;11.078;2023-07-13T02:55:00;18.40;99.90
28677;DHT22;15858;48.338;11.078;2023-07-13T02:57:27;18.40;99.90
28677;DHT22;15858;48.338;11.078;2023-07-13T02:59:53;18.40;99.90
28677;DHT22;15858;48.338;11.078;2023-07-13T03:02:20;18.40;99.90
28677;DHT22;15858;48.338;11.078;2023-07-13T03:04:47;18.40;99.90
28677;DHT22;15858;48.338;11.078;2023-07-13T03:07:16;18.50;99.90
28677;DHT22;15858;48.338;11.078;2023-07-13T03:09:44;18.50;99.90
28677;DHT22;15858;48.338;11.078;2023-07-13T03:12:11;18.50;99.90
28677;DHT22;15858;48.338;11.078;2023-07-13T03:14:38;18.50;99.90
28677;DHT22;15858;48.338;11.078;2023-07-13T03:17:04;18.40;99.90
28677;DHT22;15858;48.338;11.078;2023-07-13T03:19:31;18.40;99.90
28677;DHT22;15858;48.338;11.078;2023-07-13T03:21:58;18.40;99.90
28677;DHT22;15858;48.338;11.078;2023-07-13T03:24:25;18.40;99.90
28677;DHT22;15858;48.338;11.078;2023-07-13T03:26:52;18.40;99.90
28677;DHT22;15858;48.338;11.078;2023-07-13T03:29:19;18.40;99.90
28677;DHT22;15858;48.338;11.078;2023-07-13T03:31:46;18.40;99.90
28677;DHT22;15858;48.338;11.078;2023-07-13T03:34:12;18.40;99.90
28677;DHT22;15858;48.338;11.078;2023-07-13T03:36:39;18.50;99.90
28677;DHT22;15858;48.338;11.078;2023-07-13T03:39:06;18.50;99.90
28677;DHT22;15858;48.338;11.078;2023-07-13T03:41:32;18.40;99.90
28677;DHT22;15858;48.338;11.078;2023-07-13T03:43:59;18.40;99.90
28677;DHT22;15858;48.338;11.078;2023-07-13T03:46:26;18.40;99.90
28677;DHT22;15858;48.338;11.078;2023-07-13T03:48:57;18.40;99.90
28677;DHT22;15858;48.338;11.078;2023-07-13T03:51:24;18.40;99.90
28677;DHT22;15858;48.338;11.078;2023-07-13T03:53:50;18.40;99.90
28677;DHT22;15858;48.338;11.078;2023-07-13T03:56:20;18.40;99.90
28677;DHT22;15858;48.338;11.078;2023-07-13T03:58:48;18.40;99.90
28677;DHT22;15858;48.338;11.078;2023-07-13T04:01:17;18.40;99.90
28677;DHT22;15858;48.338;11.078;2023-07-13T04:03:45;18.30;99.90
28677;DHT22;15858;48.338;11.078;2023-07-13T04:06:21;18.20;99.90
28677;DHT22;15858;48.338;11.078;2023-07-13T04:08:53;18.30;99.90
28677;DHT22;15858;48.338;11.078;2023-07-13T04:11:23;18.30;99.90
28677;DHT22;15858;48.338;11.078;2023-07-13T04:13:50;18.30;99.90
28677;DHT22;15858;48.338;11.078;2023-07-13T04:16:18;18.30;99.90
28677;DHT22;15858;48.338;11.078;2023-07-13T04:18:46;18.30;99.90
28677;DHT22;15858;48.338;11.078;2023-07-13T04:21:14;18.30;99.90
28677;DHT22;15858;48.338;11.078;2023-07-13T04:23:41;18.30;99.90
28677;DHT22;15858;48.338;11.078;2023-07-13T04:26:08;18.30;99.90
28677;DHT22;15858;48.338;11.078;2023-07-13T04:28:36;18.20;99.90
28677;DHT22;15858;48.338;11.078;2023-07-13T04:31:03;18.20;99.90
28677;DHT22;15858;48.338;11.078;2023-07-13T04:33:30;18.20;99.90
28677;DHT22;15858;48.338;11.078;2023-07-13T04:35:57;18.10;99.90
28677;DHT22;15858;48.338;11.078;2023-07-13T04:38:25;18.10;99.90
28677;DHT22;15858;48.338;11.078;2023-07-13T04:40:59;18.10;99.90
28677;DHT22;15858;48.338;11.078;2023-07-13T04:43:26;18.10;99.90
28677;DHT22;15858;48.338;11.078;2023-07-13T04:45:54;18.10;99.90
28677;DHT22;15858;48.338;11.078;2023-07-13T04:48:21;18.10;99.90
28677;DHT22;15858;48.338;11.078;2023-07-13T04:50:47;18.10;99.90
28677;DHT22;15858;48.338;11.078;2023-07-13T04:53:20;18.10;99.90
28677;DHT22;15858;48.338;11.078;2023-07-13T04:55:47;18.10;99.90
28677;DHT22;15858;48.338;11.078;2023-07-13T04:58:13;18.10;99.90
28677;DHT22;15858;48.338;11.078;2023-07-13T05:00:40;18.10;99.90
28677;DHT22;15858;48.338;11.078;2023-07-13T05:03:08;18.10;99.90
28677;DHT22;15858;48.338;11.078;2023-07-13T05:05:35;18.10;99.90
28677;DHT22;15858;48.338;11.078;2023-07-13T05:08:02;18.10;99.90
28677;DHT22;15858;48.338;11.078;2023-07-13T05:10:28;18.00;99.90
28677;DHT22;15858;48.338;11.078;2023-07-13T05:12:55;18.00;99.90
28677;DHT22;15858;48.338;11.078;2023-07-13T05:15:23;18.00;99.90
28677;DHT22;15858;48.338;11.078;2023-07-13T05:17:50;18.00;99.90
28677;DHT22;15858;48.338;11.078;2023-07-13T05:20:18;17.90;99.90
28677;DHT22;15858;48.338;11.078;2023-07-13T05:22:45;18.00;99.90
28677;DHT22;15858;48.338;11.078;2023-07-13T05:25:13;18.00;99.90
28677;DHT22;15858;48.338;11.078;2023-07-13T05:27:40;18.00;99.90
28677;DHT22;15858;48.338;11.078;2023-07-13T05:30:07;18.10;99.90
28677;DHT22;15858;48.338;11.078;2023-07-13T05:32:34;18.10;99.90
28677;DHT22;15858;48.338;11.078;2023-07-13T05:35:00;18.10;99.90
28677;DHT22;15858;48.338;11.078;2023-07-13T05:37:27;18.10;99.90
28677;DHT22;15858;48.338;11.078;2023-07-13T05:39:54;18.10;99.90
28677;DHT22;15858;48.338;11.078;2023-07-13T05:42:20;18.10;99.90
28677;DHT22;15858;48.338;11.078;2023-07-13T05:44:47;18.20;99.90
28677;DHT22;15858;48.338;11.078;2023-07-13T05:47:14;18.20;99.90
28677;DHT22;15858;48.338;11.078;2023-07-13T05:49:41;18.30;99.90
28677;DHT22;15858;48.338;11.078;2023-07-13T05:52:08;18.20;99.90
28677;DHT22;15858;48.338;11.078;2023-07-13T05:54:35;18.20;99.90
28677;DHT22;15858;48.338;11.078;2023-07-13T05:57:02;18.20;99.90
28677;DHT22;15858;48.338;11.078;2023-07-13T05:59:29;18.20;99.90
28677;DHT22;15858;48.338;11.078;2023-07-13T06:01:55;18.30;99.90
28677;DHT22;15858;48.338;11.078;2023-07-13T06:04:22;18.30;99.90
28677;DHT22;15858;48.338;11.078;2023-07-13T06:06:49;18.30;99.90
28677;DHT22;15858;48.338;11.078;2023-07-13T06:09:16;18.30;99.90
28677;DHT22;15858;48.338;11.078;2023-07-13T06:11:42;18.40;99.90
28677;DHT22;15858;48.338;11.078;2023-07-13T06:14:09;18.40;99.90
28677;DHT22;15858;48.338;11.078;2023-07-13T06:16:36;18.50;99.90
28677;DHT22;15858;48.338;11.078;2023-07-13T06:19:03;18.50;99.90
28677;DHT22;15858;48.338;11.078;2023-07-13T06:21:30;18.50;99.90
28677;DHT22;15858;48.338;11.078;2023-07-13T06:23:57;18.40;99.90
28677;DHT22;15858;48.338;11.078;2023-07-13T06:26:24;18.40;99.90
28677;DHT22;15858;48.338;11.078;2023-07-13T06:28:51;18.40;99.90
28677;DHT22;15858;48.338;11.078;2023-07-13T06:31:17;18.40;99.90
28677;DHT22;15858;48.338;11.078;2023-07-13T06:33:44;18.40;99.90
28677;DHT22;15858;48.338;11.078;2023-07-13T06:36:11;18.40;99.90
28677;DHT22;15858;48.338;11.078;2023-07-13T06:38:38;18.30;99.90
28677;DHT22;15858;48.338;11.078;2023-07-13T06:41:07;18.30;99.90
28677;DHT22;15858;48.338;11.078;2023-07-13T06:43:35;18.30;99.90
28677;DHT22;15858;48.338;11.078;2023-07-13T06:46:01;18.30;99.90
28677;DHT22;15858;48.338;11.078;2023-07-13T06:48:28;18.30;99.90
28677;DHT22;15858;48.338;11.078;2023-07-13T06:50:56;18.30;99.90
28677;DHT22;15858;48.338;11.078;2023-07-13T06:53:23;18.30;99.90
28677;DHT22;15858;48.338;11.078;2023-07-13T06:55:50;18.30;99.90
28677;DHT22;15858;48.338;11.078;2023-07-13T06:58:17;18.30;99.90
28677;DHT22;15858;48.338;11.078;2023-07-13T07:00:45;18.30;99.90
28677;DHT22;15858;48.338;11.078;2023-07-13T07:03:13;18.20;99.90
28677;DHT22;15858;48.338;11.078;2023-07-13T07:05:40;18.10;99.90
28677;DHT22;15858;48.338;11.078;2023-07-13T07:08:07;18.10;99.90
28677;DHT22;15858;48.338;11.078;2023-07-13T07:10:34;18.10;99.90
28677;DHT22;15858;48.338;11.078;2023-07-13T07:13:02;18.10;99.90
28677;DHT22;15858;48.338;11.078;2023-07-13T07:15:29;18.10;99.90
28677;DHT22;15858;48.338;11.078;2023-07-13T07:17:55;18.10;99.90
28677;DHT22;15858;48.338;11.078;2023-07-13T07:20:22;18.00;99.90
28677;DHT22;15858;48.338;11.078;2023-07-13T07:22:49;18.10;99.90
28677;DHT22;15858;48.338;11.078;2023-07-13T07:25:16;18.10;99.90
28677;DHT22;15858;48.338;11.078;2023-07-13T07:27:44;18.10;99.90
28677;DHT22;15858;48.338;11.078;2023-07-13T07:30:13;18.10;99.90
28677;DHT22;15858;48.338;11.078;2023-07-13T07:32:43;18.20;99.90
28677;DHT22;15858;48.338;11.078;2023-07-13T07:35:13;18.20;99.90
28677;DHT22;15858;48.338;11.078;2023-07-13T07:37:39;18.20;99.90
28677;DHT22;15858;48.338;11.078;2023-07-13T07:40:09;18.20;99.90
28677;DHT22;15858;48.338;11.078;2023-07-13T07:42:39;18.30;99.90
28677;DHT22;15858;48.338;11.078;2023-07-13T07:45:06;18.30;99.90
28677;DHT22;15858;48.338;11.078;2023-07-13T07:47:33;18.40;99.90
28677;DHT22;15858;48.338;11.078;2023-07-13T07:50:00;18.30;99.90
28677;DHT22;15858;48.338;11.078;2023-07-13T07:52:26;18.40;99.90
28677;DHT22;15858;48.338;11.078;2023-07-13T07:54:53;18.40;99.90
28677;DHT22;15858;48.338;11.078;2023-07-13T07:57:22;18.50;99.90
28677;DHT22;15858;48.338;11.078;2023-07-13T07:59:52;18.50;99.90
28677;DHT22;15858;48.338;11.078;2023-07-13T08:02:22;18.60;99.90
28677;DHT22;15858;48.338;11.078;2023-07-13T08:04:52;18.70;99.90
28677;DHT22;15858;48.338;11.078;2023-07-13T08:07:21;18.80;99.90
28677;DHT22;15858;48.338;11.078;2023-07-13T08:09:51;18.90;99.90
28677;DHT22;15858;48.338;11.078;2023-07-13T08:12:18;18.90;99.90
28677;DHT22;15858;48.338;11.078;2023-07-13T08:15:06;19.00;99.90
28677;DHT22;15858;48.338;11.078;2023-07-13T08:17:33;19.00;99.90
28677;DHT22;15858;48.338;11.078;2023-07-13T08:20:00;19.00;99.90
28677;DHT22;15858;48.338;11.078;2023-07-13T08:22:27;19.00;99.90
28677;DHT22;15858;48.338;11.078;2023-07-13T08:24:54;19.10;99.90
28677;DHT22;15858;48.338;11.078;2023-07-13T08:27:22;19.00;99.90
28677;DHT22;15858;48.338;11.078;2023-07-13T08:29:49;19.10;99.90
28677;DHT22;15858;48.338;11.078;2023-07-13T08:32:18;19.20;99.90
28677;DHT22;15858;48.338;11.078;2023-07-13T08:34:45;19.30;99.90
28677;DHT22;15858;48.338;11.078;2023-07-13T08:37:12;19.40;99.90
28677;DHT22;15858;48.338;11.078;2023-07-13T08:39:39;19.50;99.90
28677;DHT22;15858;48.338;11.078;2023-07-13T08:42:54;19.50;99.90
28677;DHT22;15858;48.338;11.078;2023-07-13T08:47:57;19.80;99.90
28677;DHT22;15858;48.338;11.078;2023-07-13T08:50:31;19.70;99.90
28677;DHT22;15858;48.338;11.078;2023-07-13T08:53:20;19.70;99.90
28677;DHT22;15858;48.338;11.078;2023-07-13T08:55:48;19.90;99.90
28677;DHT22;15858;48.338;11.078;2023-07-13T08:58:19;20.10;99.90
28677;DHT22;15858;48.338;11.078;2023-07-13T09:01:17;20.30;99.90
28677;DHT22;15858;48.338;11.078;2023-07-13T09:14:53;20.80;99.90
28677;DHT22;15858;48.338;11.078;2023-07-13T09:17:40;20.90;99.90
28677;DHT22;15858;48.338;11.078;2023-07-13T09:20:20;20.80;99.90
28677;DHT22;15858;48.338;11.078;2023-07-13T09:22:49;20.80;99.90
28677;DHT22;15858;48.338;11.078;2023-07-13T09:25:33;20.80;99.90
28677;DHT22;15858;48.338;11.078;2023-07-13T09:28:24;20.70;99.90
28677;DHT22;15858;48.338;11.078;2023-07-13T09:31:06;20.80;99.90
28677;DHT22;15858;48.338;11.078;2023-07-13T09:33:33;20.80;99.90
28677;DHT22;15858;48.338;11.078;2023-07-13T09:36:00;20.80;99.90
28677;DHT22;15858;48.338;11.078;2023-07-13T09:38:29;21.10;99.90
28677;DHT22;15858;48.338;11.078;2023-07-13T09:44:18;21.20;99.90
28677;DHT22;15858;48.338;11.078;2023-07-13T09:46:53;21.40;99.90
28677;DHT22;15858;48.338;11.078;2023-07-13T09:49:28;21.50;99.90
28677;DHT22;15858;48.338;11.078;2023-07-13T09:52:11;21.50;99.90
28677;DHT22;15858;48.338;11.078;2023-07-13T09:54:38;21.50;99.90
28677;DHT22;15858;48.338;11.078;2023-07-13T09:57:17;21.50;99.90
28677;DHT22;15858;48.338;11.078;2023-07-13T09:59:46;21.60;99.90
28677;DHT22;15858;48.338;11.078;2023-07-13T10:02:28;21.60;99.90
28677;DHT22;15858;48.338;11.078;2023-07-13T10:05:02;21.60;99.90
28677;DHT22;15858;48.338;11.078;2023-07-13T10:07:30;21.80;99.90
28677;DHT22;15858;48.338;11.078;2023-07-13T10:10:00;21.70;99.90
28677;DHT22;15858;48.338;11.078;2023-07-13T10:12:29;21.60;99.90
28677;DHT22;15858;48.338;11.078;2023-07-13T10:14:59;21.60;99.90
28677;DHT22;15858;48.338;11.078;2023-07-13T10:17:48;21.80;99.90
28677;DHT22;15858;48.338;11.078;2023-07-13T10:20:16;22.00;99.90
28677;DHT22;15858;48.338;11.078;2023-07-13T10:22:58;22.10;99.90
28677;DHT22;15858;48.338;11.078;2023-07-13T10:25:30;22.10;99.90
28677;DHT22;15858;48.338;11.078;2023-07-13T10:28:25;22.00;99.90
28677;DHT22;15858;48.338;11.078;2023-07-13T10:30:55;22.30;99.90
28677;DHT22;15858;48.338;11.078;2023-07-13T10:33:23;22.50;99.90
28677;DHT22;15858;48.338;11.078;2023-07-13T10:35:52;22.60;99.90
28677;DHT22;15858;48.338;11.078;2023-07-13T10:38:22;22.70;99.90
28677;DHT22;15858;48.338;11.078;2023-07-13T10:43:36;22.80;99.90
28677;DHT22;15858;48.338;11.078;2023-07-13T10:46:07;22.70;99.90
28677;DHT22;15858;48.338;11.078;2023-07-13T10:48:35;22.90;99.90
28677;DHT22;15858;48.338;11.078;2023-07-13T10:51:05;22.90;99.90
28677;DHT22;15858;48.338;11.078;2023-07-13T10:53:35;23.10;99.90
28677;DHT22;15858;48.338;11.078;2023-07-13T10:58:40;23.20;99.90
28677;DHT22;15858;48.338;11.078;2023-07-13T11:01:08;23.20;99.00
28677;DHT22;15858;48.338;11.078;2023-07-13T11:03:49;23.40;97.90
28677;DHT22;15858;48.338;11.078;2023-07-13T11:08:57;23.70;98.60
28677;DHT22;15858;48.338;11.078;2023-07-13T11:27:41;23.30;97.70
28677;DHT22;15858;48.338;11.078;2023-07-13T11:30:19;23.10;97.80
28677;DHT22;15858;48.338;11.078;2023-07-13T11:32:51;23.10;97.00
28677;DHT22;15858;48.338;11.078;2023-07-13T11:35:26;23.20;96.40
28677;DHT22;15858;48.338;11.078;2023-07-13T11:37:53;23.50;97.30
28677;DHT22;15858;48.338;11.078;2023-07-13T11:40:23;23.70;95.70
28677;DHT22;15858;48.338;11.078;2023-07-13T11:42:52;23.80;97.20
28677;DHT22;15858;48.338;11.078;2023-07-13T11:45:28;23.90;96.00
28677;DHT22;15858;48.338;11.078;2023-07-13T11:48:21;23.80;96.00
28677;DHT22;15858;48.338;11.078;2023-07-13T11:51:06;24.00;96.20
28677;DHT22;15858;48.338;11.078;2023-07-13T11:53:40;23.90;95.80
28677;DHT22;15858;48.338;11.078;2023-07-13T11:56:08;24.00;97.40
28677;DHT22;15858;48.338;11.078;2023-07-13T11:58:35;24.00;95.50
28677;DHT22;15858;48.338;11.078;2023-07-13T12:01:03;24.00;97.30
28677;DHT22;15858;48.338;11.078;2023-07-13T12:03:32;24.00;96.40
28677;DHT22;15858;48.338;11.078;2023-07-13T12:06:02;24.00;95.50
28677;DHT22;15858;48.338;11.078;2023-07-13T12:08:29;23.80;95.80
28677;DHT22;15858;48.338;11.078;2023-07-13T12:11:00;23.90;95.60
28677;DHT22;15858;48.338;11.078;2023-07-13T12:13:29;23.90;95.20
28677;DHT22;15858;48.338;11.078;2023-07-13T12:15:56;23.80;94.70
28677;DHT22;15858;48.338;11.078;2023-07-13T12:18:29;23.90;95.30
28677;DHT22;15858;48.338;11.078;2023-07-13T12:20:59;23.70;95.00
28677;DHT22;15858;48.338;11.078;2023-07-13T12:23:29;23.70;95.60
28677;DHT22;15858;48.338;11.078;2023-07-13T12:25:58;23.90;95.70
28677;DHT22;15858;48.338;11.078;2023-07-13T12:28:34;23.80;95.40
28677;DHT22;15858;48.338;11.078;2023-07-13T12:31:03;23.90;95.90
28677;DHT22;15858;48.338;11.078;2023-07-13T12:33:32;24.00;94.00
28677;DHT22;15858;48.338;11.078;2023-07-13T12:36:02;24.20;95.10
28677;DHT22;15858;48.338;11.078;2023-07-13T12:38:30;24.20;93.80
28677;DHT22;15858;48.338;11.078;2023-07-13T12:40:57;24.30;94.40
28677;DHT22;15858;48.338;11.078;2023-07-13T12:43:25;24.30;94.40
28677;DHT22;15858;48.338;11.078;2023-07-13T12:46:02;24.40;93.50
28677;DHT22;15858;48.338;11.078;2023-07-13T12:48:37;24.50;93.40
28677;DHT22;15858;48.338;11.078;2023-07-13T12:51:16;24.70;93.90
28677;DHT22;15858;48.338;11.078;2023-07-13T12:53:49;24.80;94.50
28677;DHT22;15858;48.338;11.078;2023-07-13T12:56:21;25.00;94.70
28677;DHT22;15858;48.338;11.078;2023-07-13T12:58:49;25.00;93.10
28677;DHT22;15858;48.338;11.078;2023-07-13T13:01:17;25.10;94.00
28677;DHT22;15858;48.338;11.078;2023-07-13T13:03:51;25.10;93.60
28677;DHT22;15858;48.338;11.078;2023-07-13T13:08:50;25.20;93.80
28677;DHT22;15858;48.338;11.078;2023-07-13T13:11:21;25.10;93.50
28677;DHT22;15858;48.338;11.078;2023-07-13T13:13:48;25.00;93.10
28677;DHT22;15858;48.338;11.078;2023-07-13T13:18:45;25.20;92.60
28677;DHT22;15858;48.338;11.078;2023-07-13T13:21:12;25.30;93.60
28677;DHT22;15858;48.338;11.078;2023-07-13T13:23:38;25.40;93.40
28677;DHT22;15858;48.338;11.078;2023-07-13T13:26:13;25.40;92.30
28677;DHT22;15858;48.338;11.078;2023-07-13T13:28:40;25.40;93.30
28677;DHT22;15858;48.338;11.078;2023-07-13T13:31:08;25.70;93.40
28677;DHT22;15858;48.338;11.078;2023-07-13T13:33:35;25.70;92.30
28677;DHT22;15858;48.338;11.078;2023-07-13T13:36:02;25.70;92.20
28677;DHT22;15858;48.338;11.078;2023-07-13T13:38:28;25.40;91.40
28677;DHT22;15858;48.338;11.078;2023-07-13T13:40:55;25.30;92.00
28677;DHT22;15858;48.338;11.078;2023-07-13T13:43:24;25.20;92.80
28677;DHT22;15858;48.338;11.078;2023-07-13T13:45:52;25.40;92.80
28677;DHT22;15858;48.338;11.078;2023-07-13T13:48:25;25.20;93.00
28677;DHT22;15858;48.338;11.078;2023-07-13T13:50:53;25.20;92.80
28677;DHT22;15858;48.338;11.078;2023-07-13T13:53:19;25.40;93.10
28677;DHT22;15858;48.338;11.078;2023-07-13T13:55:46;25.40;91.40
28677;DHT22;15858;48.338;11.078;2023-07-13T13:58:13;25.30;92.30
28677;DHT22;15858;48.338;11.078;2023-07-13T14:00:39;25.30;91.90
28677;DHT22;15858;48.338;11.078;2023-07-13T14:03:17;25.50;92.00
28677;DHT22;15858;48.338;11.078;2023-07-13T14:05:50;25.40;91.40
28677;DHT22;15858;48.338;11.078;2023-07-13T14:08:20;25.40;91.60
28677;DHT22;15858;48.338;11.078;2023-07-13T14:10:51;25.50;91.30
28677;DHT22;15858;48.338;11.078;2023-07-13T14:13:22;25.50;90.70
28677;DHT22;15858;48.338;11.078;2023-07-13T14:15:51;25.70;92.10
28677;DHT22;15858;48.338;11.078;2023-07-13T14:18:19;25.60;90.00
28677;DHT22;15858;48.338;11.078;2023-07-13T14:20:47;25.50;91.50
28677;DHT22;15858;48.338;11.078;2023-07-13T14:23:15;25.70;91.20
28677;DHT22;15858;48.338;11.078;2023-07-13T14:25:42;25.40;90.40
28677;DHT22;15858;48.338;11.078;2023-07-13T14:28:19;25.20;90.60
28677;DHT22;15858;48.338;11.078;2023-07-13T14:30:46;25.10;91.40
28677;DHT22;15858;48.338;11.078;2023-07-13T14:33:13;25.20;92.10
28677;DHT22;15858;48.338;11.078;2023-07-13T14:35:40;25.30;91.20
28677;DHT22;15858;48.338;11.078;2023-07-13T14:38:10;25.20;91.00
28677;DHT22;15858;48.338;11.078;2023-07-13T14:40:39;25.00;90.20
28677;DHT22;15858;48.338;11.078;2023-07-13T14:43:13;24.90;90.30
28677;DHT22;15858;48.338;11.078;2023-07-13T14:45:46;24.90;90.30
28677;DHT22;15858;48.338;11.078;2023-07-13T14:48:23;24.90;91.40
28677;DHT22;15858;48.338;11.078;2023-07-13T14:50:54;25.10;91.20
28677;DHT22;15858;48.338;11.078;2023-07-13T14:53:22;24.90;90.20
28677;DHT22;15858;48.338;11.078;2023-07-13T14:55:48;24.80;90.90
28677;DHT22;15858;48.338;11.078;2023-07-13T14:58:16;24.90;92.20
28677;DHT22;15858;48.338;11.078;2023-07-13T15:00:43;24.90;90.60
28677;DHT22;15858;48.338;11.078;2023-07-13T15:03:20;24.80;90.80
28677;DHT22;15858;48.338;11.078;2023-07-13T15:05:49;24.80;90.10
28677;DHT22;15858;48.338;11.078;2023-07-13T15:08:16;25.00;90.80
28677;DHT22;15858;48.338;11.078;2023-07-13T15:10:42;24.80;91.30
28677;DHT22;15858;48.338;11.078;2023-07-13T15:13:14;24.80;92.10
28677;DHT22;15858;48.338;11.078;2023-07-13T15:15:45;24.60;90.20
28677;DHT22;15858;48.338;11.078;2023-07-13T15:18:14;24.50;91.40
28677;DHT22;15858;48.338;11.078;2023-07-13T15:20:40;24.50;91.60
28677;DHT22;15858;48.338;11.078;2023-07-13T15:23:09;24.70;91.90
28677;DHT22;15858;48.338;11.078;2023-07-13T15:25:36;24.80;91.30
28677;DHT22;15858;48.338;11.078;2023-07-13T15:28:03;24.80;90.20
28677;DHT22;15858;48.338;11.078;2023-07-13T15:30:39;24.90;90.50
28677;DHT22;15858;48.338;11.078;2023-07-13T15:33:30;25.00;89.90
28677;DHT22;15858;48.338;11.078;2023-07-13T15:35:56;25.10;87.60
28677;DHT22;15858;48.338;11.078;2023-07-13T15:38:27;25.00;88.90
28677;DHT22;15858;48.338;11.078;2023-07-13T15:40:54;25.10;88.60
28677;DHT22;15858;48.338;11.078;2023-07-13T15:43:21;25.00;87.90
28677;DHT22;15858;48.338;11.078;2023-07-13T15:45:49;24.80;87.50
28677;DHT22;15858;48.338;11.078;2023-07-13T15:48:18;24.60;90.00
28677;DHT22;15858;48.338;11.078;2023-07-13T15:50:54;24.70;90.90
28677;DHT22;15858;48.338;11.078;2023-07-13T15:53:26;24.50;89.70
28677;DHT22;15858;48.338;11.078;2023-07-13T15:55:55;24.50;90.10
28677;DHT22;15858;48.338;11.078;2023-07-13T15:58:22;24.60;90.10
28677;DHT22;15858;48.338;11.078;2023-07-13T16:00:48;24.60;90.70
28677;DHT22;15858;48.338;11.078;2023-07-13T16:03:15;24.60;91.10
28677;DHT22;15858;48.338;11.078;2023-07-13T16:05:42;24.70;90.70
28677;DHT22;15858;48.338;11.078;2023-07-13T16:08:23;24.70;90.80
28677;DHT22;15858;48.338;11.078;2023-07-13T16:10:50;24.70;91.30
28677;DHT22;15858;48.338;11.078;2023-07-13T16:13:20;24.70;90.50
28677;DHT22;15858;48.338;11.078;2023-07-13T16:15:47;24.60;87.10
28677;DHT22;15858;48.338;11.078;2023-07-13T16:18:14;24.60;88.90